Time;durP1;ratioP1;P1;durP2;ratioP2;P2;SDS_P1;SDS_P2;PMS_P1;PMS_P2;Temp;Humidity;BMP_temperature;BMP_pressure;BME280_temperature;BME280_humidity;BME280_pressure;Samples;Min_cycle;Max_cycle;Signal;HPM_P1;HPM_P2
2021/12/07 00:01:23;;;;;;;4.17;3.47;;;5.10;99.90;;;;;;5031508;28;20264;-57
2021/12/07 00:03:51;;;;;;;3.50;2.70;;;5.20;99.90;;;;;;5031784;28;20217;-57
2021/12/07 00:06:18;;;;;;;2.90;2.50;;;5.20;99.90;;;;;;5031474;28;20290;-57
2021/12/07 00:08:45;;;;;;;3.80;2.80;;;5.40;99.90;;;;;;5031472;28;20232;-57
2021/12/07 00:11:13;;;;;;;2.73;2.43;;;5.40;99.90;;;;;;5031474;28;20230;-57
2021/12/07 00:13:42;;;;;;;3.60;2.70;;;5.30;99.90;;;;;;5031429;28;20232;-57
2021/12/07 00:16:11;;;;;;;2.93;2.30;;;5.30;99.90;;;;;;5031082;28;20307;-57
2021/12/07 00:18:39;;;;;;;3.40;2.60;;;5.30;99.90;;;;;;5031584;28;20212;-57
2021/12/07 00:21:07;;;;;;;3.40;2.70;;;5.30;99.90;;;;;;5031363;28;20230;-57
2021/12/07 00:23:35;;;;;;;2.87;2.50;;;5.40;99.90;;;;;;5031563;28;20206;-57
2021/12/07 00:26:02;;;;;;;3.50;2.83;;;5.40;99.90;;;;;;5031141;28;20210;-57
2021/12/07 00:28:29;;;;;;;3.20;2.67;;;5.50;99.90;;;;;;5031281;28;20210;-59
2021/12/07 00:31:03;;;;;;;2.97;2.33;;;5.50;99.90;;;;;;5031449;28;20249;-58
2021/12/07 00:47:40;;;;;;;2.80;2.40;;;5.50;99.90;;;;;;5034837;28;20181;-58
2021/12/07 00:50:10;;;;;;;3.50;2.80;;;5.50;99.90;;;;;;5034074;28;20276;-58
2021/12/07 00:52:38;;;;;;;3.33;2.57;;;5.40;99.90;;;;;;5034532;28;20686;-58
2021/12/07 00:55:09;;;;;;;3.80;3.03;;;5.40;99.90;;;;;;5034271;28;20209;-57
2021/12/07 00:57:35;;;;;;;3.30;2.60;;;5.30;99.90;;;;;;5034592;28;20336;-59
2021/12/07 01:00:03;;;;;;;2.60;2.40;;;5.30;99.90;;;;;;5034429;28;20245;-59
2021/12/07 01:02:30;;;;;;;5.23;2.67;;;5.30;99.90;;;;;;5034810;28;20210;-59
2021/12/07 01:05:03;;;;;;;3.20;2.77;;;5.30;99.90;;;;;;5034358;28;20209;-58
2021/12/07 01:07:57;;;;;;;3.20;2.90;;;5.30;99.90;;;;;;5034521;28;20218;-59
2021/12/07 01:26:51;;;;;;;3.13;2.73;;;4.90;99.90;;;;;;5035784;28;20205;-58
2021/12/07 01:29:20;;;;;;;3.27;2.87;;;4.70;99.90;;;;;;5034356;28;20238;-58
2021/12/07 01:31:54;;;;;;;4.20;2.90;;;4.70;99.90;;;;;;5034279;28;20214;-58
2021/12/07 01:34:43;;;;;;;5.30;3.10;;;4.70;99.90;;;;;;5034810;28;20233;-59
2021/12/07 01:37:26;;;;;;;3.37;3.00;;;4.70;99.90;;;;;;5034211;28;20673;-57
2021/12/07 01:43:02;;;;;;;4.53;2.93;;;4.70;99.90;;;;;;5018259;28;20213;-57
2021/12/07 01:45:56;;;;;;;3.33;2.40;;;4.70;99.90;;;;;;5034167;28;20202;-58
2021/12/07 01:51:25;;;;;;;3.33;2.57;;;4.70;99.90;;;;;;5034019;28;20225;-60
2021/12/07 01:59:34;;;;;;;3.53;2.67;;;4.90;99.90;;;;;;5033454;28;20229;-57
2021/12/07 02:02:05;;;;;;;3.30;2.53;;;4.80;99.90;;;;;;5033407;28;20206;-58
2021/12/07 02:04:32;;;;;;;3.40;2.20;;;4.80;99.90;;;;;;5033063;28;20206;-58
2021/12/07 02:06:59;;;;;;;3.20;2.47;;;4.80;99.90;;;;;;5032965;28;20214;-58
2021/12/07 02:09:26;;;;;;;2.87;2.40;;;4.80;99.90;;;;;;5033224;28;20627;-58
2021/12/07 02:11:59;;;;;;;5.20;2.60;;;4.90;99.90;;;;;;5033292;28;20229;-61
2021/12/07 02:14:26;;;;;;;4.07;2.60;;;4.90;99.90;;;;;;5033132;28;20279;-59
2021/12/07 02:16:55;;;;;;;4.33;2.60;;;4.90;99.90;;;;;;5032947;28;20217;-58
2021/12/07 02:19:22;;;;;;;2.87;2.43;;;5.00;99.90;;;;;;5032825;28;20313;-59
2021/12/07 02:21:51;;;;;;;3.10;2.50;;;5.00;99.90;;;;;;5032814;28;20256;-58
2021/12/07 02:24:18;;;;;;;3.67;2.70;;;5.00;99.90;;;;;;5032718;28;20680;-59
2021/12/07 02:26:47;;;;;;;3.73;2.90;;;5.00;99.90;;;;;;5032661;28;20206;-58
2021/12/07 02:29:14;;;;;;;3.00;2.70;;;5.10;99.90;;;;;;5032596;28;20764;-58
2021/12/07 02:31:41;;;;;;;2.90;2.63;;;5.20;99.90;;;;;;5032854;28;20256;-58
2021/12/07 02:34:08;;;;;;;2.73;2.47;;;5.10;99.90;;;;;;5032529;28;20584;-58
2021/12/07 02:36:36;;;;;;;3.83;2.50;;;5.20;99.90;;;;;;5032516;28;20293;-59
2021/12/07 02:39:06;;;;;;;2.70;2.10;;;5.20;99.90;;;;;;5032478;28;20210;-58
2021/12/07 02:41:34;;;;;;;2.57;2.20;;;5.20;99.90;;;;;;5032576;28;20210;-58
2021/12/07 02:44:01;;;;;;;4.97;2.40;;;5.10;99.90;;;;;;5032544;28;20217;-58
2021/12/07 02:46:28;;;;;;;2.60;2.27;;;5.20;99.90;;;;;;5032059;28;20625;-58
2021/12/07 02:48:55;;;;;;;3.23;2.50;;;5.20;99.90;;;;;;5032082;28;20210;-58
2021/12/07 02:51:22;;;;;;;2.93;2.40;;;5.20;99.90;;;;;;5032493;28;20240;-60
2021/12/07 02:53:49;;;;;;;2.57;2.23;;;5.30;99.90;;;;;;5032543;28;20217;-58
2021/12/07 02:56:17;;;;;;;3.27;2.83;;;5.40;99.90;;;;;;5031693;28;20289;-58
2021/12/07 02:58:44;;;;;;;2.60;2.30;;;5.50;99.90;;;;;;5032239;28;20210;-58
2021/12/07 03:01:17;;;;;;;2.90;2.23;;;5.60;99.90;;;;;;5032096;28;20218;-58
2021/12/07 03:03:55;;;;;;;2.20;2.00;;;5.50;99.90;;;;;;5032362;28;20305;-58
2021/12/07 03:06:29;;;;;;;3.00;1.93;;;5.50;99.90;;;;;;5032100;28;20599;-56
2021/12/07 03:28:16;;;;;;;2.10;1.67;;;5.40;99.90;;;;;;5031957;28;20680;-58
2021/12/07 03:30:43;;;;;;;2.13;1.60;;;5.50;99.90;;;;;;5031943;28;20316;-58
2021/12/07 03:33:10;;;;;;;1.60;1.40;;;5.40;99.90;;;;;;5031831;28;20669;-58
2021/12/07 03:35:37;;;;;;;1.50;1.40;;;5.30;99.90;;;;;;5031865;28;20214;-58
2021/12/07 03:38:05;;;;;;;2.20;1.70;;;5.30;99.90;;;;;;5031993;28;20210;-58
2021/12/07 03:40:31;;;;;;;3.33;2.83;;;5.30;99.90;;;;;;5031770;28;20233;-58
2021/12/07 03:42:59;;;;;;;2.97;1.63;;;5.30;99.90;;;;;;5031696;28;20237;-58
2021/12/07 03:45:27;;;;;;;2.20;1.53;;;5.40;99.90;;;;;;5031770;28;20202;-58
2021/12/07 03:47:55;;;;;;;1.83;1.50;;;5.30;99.90;;;;;;5031969;28;20214;-58
2021/12/07 03:50:22;;;;;;;1.60;1.50;;;5.30;99.90;;;;;;5031578;28;20619;-58
2021/12/07 03:52:49;;;;;;;1.90;1.60;;;5.30;99.90;;;;;;5031636;28;20217;-58
2021/12/07 03:55:16;;;;;;;2.90;1.63;;;5.30;99.90;;;;;;5031451;28;20214;-58
2021/12/07 03:57:44;;;;;;;1.50;1.40;;;5.30;99.90;;;;;;5031512;28;20674;-60
2021/12/07 04:00:13;;;;;;;1.80;1.70;;;5.30;99.90;;;;;;5031803;28;20226;-58
2021/12/07 04:02:41;;;;;;;2.23;1.83;;;5.20;99.90;;;;;;5031712;28;20260;-59
2021/12/07 04:05:13;;;;;;;2.70;1.60;;;5.20;99.90;;;;;;5031274;28;20579;-58
2021/12/07 04:07:39;;;;;;;2.07;1.60;;;5.20;99.90;;;;;;5032544;28;20739;-59
2021/12/07 04:10:07;;;;;;;2.40;1.80;;;5.30;99.90;;;;;;5035228;28;20227;-58
2021/12/07 04:12:35;;;;;;;2.43;1.83;;;5.30;99.90;;;;;;5035585;28;20229;-60
2021/12/07 04:15:04;;;;;;;2.80;1.70;;;5.20;99.90;;;;;;5035137;28;20202;-59
2021/12/07 04:17:30;;;;;;;2.97;2.03;;;5.10;99.90;;;;;;5035231;28;20217;-59
2021/12/07 04:19:59;;;;;;;2.57;2.30;;;5.20;99.90;;;;;;5035157;28;20226;-59
2021/12/07 04:22:25;;;;;;;3.00;2.30;;;5.10;99.90;;;;;;5035140;28;20206;-58
2021/12/07 04:24:52;;;;;;;3.00;2.30;;;5.10;99.90;;;;;;5035140;28;20241;-59
2021/12/07 04:27:19;;;;;;;3.13;2.17;;;5.20;99.90;;;;;;5035318;28;20218;-59
2021/12/07 04:29:47;;;;;;;3.30;1.90;;;5.20;99.90;;;;;;5035017;28;20272;-59
2021/12/07 04:32:13;;;;;;;3.77;1.80;;;5.30;99.90;;;;;;5035006;28;20206;-59
2021/12/07 04:34:40;;;;;;;1.90;1.50;;;5.20;99.90;;;;;;5034899;28;20202;-58
2021/12/07 04:37:08;;;;;;;2.67;1.00;;;5.20;99.90;;;;;;5034790;28;20214;-59
2021/12/07 04:39:35;;;;;;;2.90;1.30;;;5.10;99.90;;;;;;5034869;28;20241;-59
2021/12/07 04:42:01;;;;;;;3.50;1.40;;;5.00;99.90;;;;;;5034889;28;20214;-59
2021/12/07 04:44:28;;;;;;;7.30;4.03;;;5.00;99.90;;;;;;5034613;28;20225;-59
2021/12/07 04:47:06;;;;;;;3.90;1.90;;;4.90;99.90;;;;;;5034722;28;20222;-58
2021/12/07 04:49:55;;;;;;;3.23;1.43;;;5.00;99.90;;;;;;5034597;28;20674;-58
2021/12/07 04:57:52;;;;;;;2.30;1.40;;;4.90;99.90;;;;;;5034465;28;20225;-58
2021/12/07 05:00:21;;;;;;;3.10;1.77;;;4.90;99.90;;;;;;5034820;28;20295;-58
2021/12/07 05:02:53;;;;;;;2.60;1.57;;;5.00;99.90;;;;;;5034656;28;20241;-57
2021/12/07 05:05:23;;;;;;;2.00;1.50;;;5.10;99.90;;;;;;5034349;28;20210;-58
2021/12/07 05:07:54;;;;;;;2.47;2.10;;;5.10;99.90;;;;;;5034225;28;20673;-60
2021/12/07 05:10:27;;;;;;;4.87;2.10;;;5.10;99.90;;;;;;5034062;28;20343;-58
2021/12/07 05:13:10;;;;;;;3.03;1.97;;;5.00;99.90;;;;;;5034292;28;20206;-59
2021/12/07 05:16:09;;;;;;;2.03;1.20;;;5.00;99.90;;;;;;5034068;28;20652;-59
2021/12/07 05:24:10;;;;;;;4.03;1.57;;;5.10;99.90;;;;;;5034198;28;20599;-59
2021/12/07 05:37:52;;;;;;;6.00;2.90;;;5.40;99.90;;;;;;5033927;28;20197;-59
2021/12/07 05:40:23;;;;;;;3.87;2.30;;;5.40;99.90;;;;;;5034281;28;20606;-56
2021/12/07 05:42:50;;;;;;;4.67;2.80;;;5.50;99.90;;;;;;5033686;28;20253;-57
2021/12/07 05:45:19;;;;;;;2.90;1.97;;;5.50;99.90;;;;;;5033386;28;20213;-56
2021/12/07 05:47:46;;;;;;;3.57;1.60;;;5.50;99.90;;;;;;5033620;28;20268;-57
2021/12/07 05:50:16;;;;;;;2.53;1.90;;;5.60;99.90;;;;;;5033679;28;20713;-56
2021/12/07 05:52:43;;;;;;;2.67;1.50;;;5.70;99.90;;;;;;5033946;28;20213;-56
2021/12/07 05:55:10;;;;;;;3.83;1.63;;;5.70;99.90;;;;;;5033489;28;20206;-57
2021/12/07 05:57:38;;;;;;;4.17;1.50;;;5.70;99.90;;;;;;5033564;28;20202;-55
2021/12/07 06:00:09;;;;;;;2.03;1.40;;;5.80;99.90;;;;;;5033161;28;20222;-55
2021/12/07 06:02:36;;;;;;;4.87;1.97;;;5.90;99.90;;;;;;5033540;28;20267;-56
2021/12/07 06:05:04;;;;;;;3.97;1.60;;;6.00;99.90;;;;;;5033325;28;20214;-56
2021/12/07 06:07:30;;;;;;;4.50;1.60;;;6.00;99.90;;;;;;5033557;28;20209;-57
2021/12/07 06:09:57;;;;;;;6.17;1.73;;;6.10;99.90;;;;;;5033094;28;20234;-56
2021/12/07 06:12:24;;;;;;;3.80;1.50;;;6.10;99.90;;;;;;5033081;28;20206;-55
2021/12/07 06:14:55;;;;;;;4.20;2.30;;;6.20;99.90;;;;;;5032810;28;20268;-56
2021/12/07 06:17:22;;;;;;;2.83;1.40;;;6.30;99.90;;;;;;5033098;28;20631;-54
2021/12/07 06:19:49;;;;;;;7.93;4.43;;;6.30;99.90;;;;;;5032879;28;20626;-54
2021/12/07 06:22:16;;;;;;;2.57;1.90;;;6.30;99.90;;;;;;5033042;28;20245;-55
2021/12/07 06:24:42;;;;;;;4.83;1.67;;;6.30;99.90;;;;;;5033032;28;20279;-58
2021/12/07 06:27:09;;;;;;;5.57;1.60;;;6.40;99.90;;;;;;5032742;28;20209;-55
2021/12/07 06:29:36;;;;;;;5.43;2.00;;;6.40;99.90;;;;;;5032401;28;20222;-55
2021/12/07 06:32:05;;;;;;;4.63;1.80;;;6.50;99.90;;;;;;5032333;28;20253;-55
2021/12/07 06:34:32;;;;;;;5.57;1.90;;;6.50;99.90;;;;;;5032793;28;20202;-55
2021/12/07 06:37:00;;;;;;;6.13;2.07;;;6.50;99.90;;;;;;5032572;28;20214;-56
2021/12/07 06:39:26;;;;;;;8.13;1.80;;;6.60;99.90;;;;;;5032437;28;20590;-56
2021/12/07 06:41:53;;;;;;;3.73;1.77;;;6.60;99.90;;;;;;5032557;28;20221;-56
2021/12/07 06:44:20;;;;;;;4.43;1.80;;;6.70;99.90;;;;;;5032503;28;20620;-56
2021/12/07 06:46:48;;;;;;;5.20;1.80;;;6.70;99.90;;;;;;5032422;28;20264;-56
2021/12/07 06:49:16;;;;;;;7.03;3.50;;;6.80;99.90;;;;;;5032770;28;20236;-54
2021/12/07 06:51:43;;;;;;;9.60;4.10;;;6.80;99.90;;;;;;5032409;28;20226;-54
2021/12/07 06:54:09;;;;;;;6.30;2.97;;;6.90;99.90;;;;;;5032366;28;20260;-54
2021/12/07 06:56:36;;;;;;;6.80;2.30;;;6.90;99.90;;;;;;5032165;28;20210;-55
2021/12/07 06:59:03;;;;;;;3.57;1.90;;;6.80;99.90;;;;;;5032707;28;20206;-58
2021/12/07 07:01:30;;;;;;;5.03;1.80;;;6.80;99.90;;;;;;5032468;28;20210;-55
2021/12/07 07:03:57;;;;;;;6.03;1.87;;;6.70;99.90;;;;;;5032431;28;20214;-55
2021/12/07 07:06:25;;;;;;;4.20;1.50;;;6.60;99.90;;;;;;5032296;28;20210;-56
2021/12/07 07:08:51;;;;;;;3.87;1.87;;;6.60;99.90;;;;;;5032066;28;20629;-56
2021/12/07 07:11:19;;;;;;;3.87;1.53;;;6.60;99.90;;;;;;5031995;28;20230;-55
2021/12/07 07:13:47;;;;;;;5.73;2.70;;;6.40;99.90;;;;;;5032174;28;20206;-56
2021/12/07 07:16:14;;;;;;;8.13;2.10;;;6.40;99.90;;;;;;5031766;28;20873;-55
2021/12/07 07:18:41;;;;;;;5.83;2.50;;;6.30;99.90;;;;;;5032408;28;20210;-55
2021/12/07 07:21:08;;;;;;;5.20;2.00;;;6.30;99.90;;;;;;5032103;28;20225;-59
2021/12/07 07:23:38;;;;;;;4.47;1.60;;;6.40;99.90;;;;;;5031933;28;20751;-55
2021/12/07 07:26:05;;;;;;;6.27;2.20;;;6.40;99.90;;;;;;5031564;28;20206;-54
2021/12/07 07:28:34;;;;;;;3.67;1.53;;;6.50;99.90;;;;;;5032281;28;20206;-58
2021/12/07 07:31:01;;;;;;;7.23;2.23;;;6.50;99.90;;;;;;5031543;28;20226;-56
2021/12/07 07:33:28;;;;;;;6.27;1.93;;;6.50;99.90;;;;;;5031816;28;20210;-57
2021/12/07 07:35:55;;;;;;;7.27;1.73;;;6.50;99.90;;;;;;5031632;28;20214;-56
2021/12/07 07:38:22;;;;;;;4.93;1.50;;;6.40;99.90;;;;;;5031923;28;20675;-56
2021/12/07 07:40:50;;;;;;;4.30;1.57;;;6.40;99.90;;;;;;5031625;28;20234;-56
2021/12/07 07:43:18;;;;;;;5.87;2.10;;;6.40;99.90;;;;;;5035466;28;20220;-56
2021/12/07 07:45:47;;;;;;;7.07;2.50;;;6.50;99.90;;;;;;5035464;28;20210;-56
2021/12/07 07:48:14;;;;;;;4.03;1.63;;;6.60;99.90;;;;;;5035761;28;20201;-55
2021/12/07 07:50:40;;;;;;;7.33;1.60;;;6.60;99.90;;;;;;5035579;28;20226;-56
2021/12/07 07:53:07;;;;;;;9.63;3.80;;;6.60;99.90;;;;;;5035943;28;20264;-56
2021/12/07 07:55:35;;;;;;;6.63;2.10;;;6.70;99.90;;;;;;5035595;28;20210;-55
2021/12/07 07:58:03;;;;;;;7.97;2.77;;;6.70;99.90;;;;;;5035699;28;20282;-56
2021/12/07 08:00:31;;;;;;;8.80;1.90;;;6.80;99.90;;;;;;5035624;28;20638;-56
2021/12/07 08:02:58;;;;;;;6.73;2.03;;;6.80;99.90;;;;;;5035553;28;20206;-55
2021/12/07 08:05:25;;;;;;;8.20;2.87;;;6.80;99.90;;;;;;5035466;28;20670;-55
2021/12/07 08:07:51;;;;;;;6.10;1.73;;;6.70;99.90;;;;;;5036672;28;20210;-58
2021/12/07 08:10:21;;;;;;;11.33;5.00;;;6.70;99.90;;;;;;5035942;28;20226;-56
2021/12/07 08:12:48;;;;;;;5.40;1.90;;;6.70;99.90;;;;;;5036000;28;20245;-57
2021/12/07 08:15:17;;;;;;;4.80;1.77;;;6.80;99.90;;;;;;5035099;28;20268;-56
2021/12/07 08:17:44;;;;;;;7.57;2.00;;;6.80;99.90;;;;;;5035249;28;20207;-57
2021/12/07 08:20:11;;;;;;;9.73;2.27;;;6.90;99.90;;;;;;5035465;28;20710;-55
2021/12/07 08:22:38;;;;;;;9.10;2.00;;;7.00;99.90;;;;;;5035187;28;20206;-56
2021/12/07 08:25:06;;;;;;;6.47;2.20;;;7.10;99.90;;;;;;5034726;28;20605;-61
2021/12/07 08:27:34;;;;;;;6.40;2.53;;;7.30;99.90;;;;;;5035077;28;20210;-55
2021/12/07 08:30:00;;;;;;;6.10;2.30;;;7.40;99.90;;;;;;5035199;28;20234;-56
2021/12/07 08:32:28;;;;;;;7.77;2.23;;;7.50;99.90;;;;;;5034857;28;20237;-55
2021/12/07 08:34:56;;;;;;;9.87;2.10;;;7.50;99.90;;;;;;5035207;28;20210;-55
2021/12/07 08:37:23;;;;;;;6.17;1.83;;;7.60;99.90;;;;;;5035280;28;20297;-55
2021/12/07 08:39:50;;;;;;;6.27;2.40;;;7.70;99.90;;;;;;5034870;28;20772;-56
2021/12/07 08:42:17;;;;;;;19.80;11.53;;;7.80;99.90;;;;;;5035128;28;20202;-55
2021/12/07 08:44:44;;;;;;;7.13;2.30;;;7.80;99.90;;;;;;5035671;28;20679;-57
2021/12/07 08:47:10;;;;;;;4.07;1.90;;;7.80;99.90;;;;;;5035001;28;20210;-57
2021/12/07 08:49:39;;;;;;;5.77;1.90;;;7.70;99.90;;;;;;5035687;28;20226;-56
2021/12/07 08:52:06;;;;;;;8.70;3.17;;;7.80;99.90;;;;;;5035357;28;20226;-55
2021/12/07 08:59:37;;;;;;;6.67;1.87;;;7.90;99.90;;;;;;5034498;28;20793;-56
2021/12/07 09:00:08;;;;;;;7.50;2.33;;;8.00;99.90;;;;;;5034884;28;20229;-56
2021/12/07 09:02:36;;;;;;;5.77;1.70;;;8.00;99.90;;;;;;5034911;28;20205;-56
2021/12/07 09:05:04;;;;;;;5.13;1.80;;;8.10;99.90;;;;;;5034918;28;20214;-56
2021/12/07 09:07:31;;;;;;;4.87;1.80;;;8.10;99.90;;;;;;5034484;28;20210;-56
2021/12/07 09:09:58;;;;;;;5.53;2.00;;;8.10;99.90;;;;;;5034340;28;20230;-58
2021/12/07 09:12:25;;;;;;;7.00;1.80;;;8.20;99.90;;;;;;5034643;28;20276;-57
2021/12/07 09:14:53;;;;;;;6.43;1.97;;;8.10;99.90;;;;;;5034782;28;20202;-57
2021/12/07 09:17:20;;;;;;;6.10;2.00;;;8.10;99.90;;;;;;5034205;28;20206;-56
2021/12/07 09:19:46;;;;;;;10.33;2.43;;;8.10;99.90;;;;;;5034367;28;20260;-55
2021/12/07 09:22:14;;;;;;;4.60;1.70;;;8.00;99.90;;;;;;5034577;28;20198;-56
2021/12/07 09:24:41;;;;;;;7.63;1.83;;;8.10;99.90;;;;;;5034413;28;20210;-56
2021/12/07 09:27:08;;;;;;;6.30;1.60;;;8.10;99.90;;;;;;5034200;28;20207;-56
2021/12/07 09:29:35;;;;;;;8.90;2.40;;;8.10;99.90;;;;;;5034592;28;20652;-56
2021/12/07 09:32:02;;;;;;;7.67;1.97;;;8.20;99.90;;;;;;5034003;28;20280;-56
2021/12/07 09:34:28;;;;;;;6.53;1.87;;;8.30;99.90;;;;;;5034245;28;20209;-58
2021/12/07 09:36:55;;;;;;;10.33;1.77;;;8.30;99.90;;;;;;5033840;28;20207;-58
2021/12/07 09:39:23;;;;;;;6.07;2.60;;;8.40;99.90;;;;;;5033985;28;20745;-57
2021/12/07 09:41:50;;;;;;;7.20;2.00;;;8.30;99.90;;;;;;5034311;28;20221;-57
2021/12/07 09:44:17;;;;;;;9.77;1.77;;;8.40;99.90;;;;;;5033898;28;20595;-63
2021/12/07 09:46:44;;;;;;;5.63;1.77;;;8.50;99.90;;;;;;5034017;28;20211;-65
2021/12/07 09:49:12;;;;;;;8.97;2.10;;;8.60;99.90;;;;;;5034180;28;20618;-63
2021/12/07 09:51:39;;;;;;;5.77;1.93;;;8.70;99.90;;;;;;5033767;28;20735;-62
2021/12/07 09:54:09;;;;;;;5.70;1.67;;;8.80;99.90;;;;;;5034174;28;20268;-62
2021/12/07 09:56:38;;;;;;;6.83;2.03;;;9.00;99.90;;;;;;5033759;28;20296;-58
2021/12/07 09:59:06;;;;;;;5.37;1.47;;;9.10;99.90;;;;;;5033788;28;20202;-56
2021/12/07 10:01:33;;;;;;;7.90;1.43;;;9.20;99.90;;;;;;5033887;28;20252;-56
2021/12/07 10:04:00;;;;;;;7.93;2.03;;;9.20;99.90;;;;;;5034076;28;20206;-56
2021/12/07 10:06:27;;;;;;;4.53;1.40;;;9.40;99.90;;;;;;5032461;28;20562;-55
2021/12/07 10:08:53;;;;;;;5.93;1.60;;;9.50;99.90;;;;;;5033785;28;20210;-56
2021/12/07 10:11:20;;;;;;;7.37;1.77;;;9.50;99.90;;;;;;5033729;28;20702;-56
2021/12/07 10:13:50;;;;;;;8.43;2.00;;;9.60;99.90;;;;;;5034040;28;20336;-56
2021/12/07 10:16:19;;;;;;;5.00;1.97;;;9.60;99.90;;;;;;5033683;28;20206;-56
2021/12/07 10:18:46;;;;;;;4.00;1.37;;;9.50;99.90;;;;;;5033701;28;20732;-55
2021/12/07 10:21:16;;;;;;;5.53;1.63;;;9.40;99.90;;;;;;5034005;28;20226;-56
2021/12/07 10:23:45;;;;;;;5.43;1.57;;;9.40;99.90;;;;;;5032875;28;20701;-57
2021/12/07 10:26:14;;;;;;;5.70;1.53;;;9.40;99.90;;;;;;5032950;28;20202;-54
2021/12/07 10:28:44;;;;;;;6.27;1.90;;;9.50;99.90;;;;;;5032946;28;20268;-54
2021/12/07 10:31:20;;;;;;;6.33;1.70;;;9.30;99.90;;;;;;5033034;28;20229;-55
2021/12/07 10:33:49;;;;;;;5.40;1.50;;;9.30;99.90;;;;;;5033002;28;20212;-56
2021/12/07 10:36:18;;;;;;;4.37;1.30;;;9.20;99.90;;;;;;5032486;28;20202;-54
2021/12/07 10:38:49;;;;;;;5.37;1.30;;;9.20;99.90;;;;;;5032826;28;20268;-55
2021/12/07 10:41:21;;;;;;;4.03;1.50;;;9.30;99.90;;;;;;5032458;28;20229;-54
2021/12/07 10:43:55;;;;;;;3.70;1.27;;;9.40;99.90;;;;;;5032557;28;20207;-54
2021/12/07 10:46:35;;;;;;;5.23;1.60;;;9.30;99.90;;;;;;5032663;28;20206;-55
2021/12/07 10:49:17;;;;;;;3.60;1.47;;;9.10;99.90;;;;;;5032730;28;20216;-54
2021/12/07 10:52:00;;;;;;;7.93;1.57;;;8.80;99.90;;;;;;5032444;28;20252;-56
2021/12/07 10:54:30;;;;;;;7.20;1.60;;;8.60;99.90;;;;;;5032697;28;20206;-56
2021/12/07 10:56:59;;;;;;;6.27;1.80;;;8.50;99.90;;;;;;5032231;28;20209;-55
2021/12/07 10:59:26;;;;;;;7.13;2.20;;;8.50;99.90;;;;;;5032331;28;20608;-55
2021/12/07 11:01:54;;;;;;;3.97;1.50;;;8.50;99.90;;;;;;5032301;28;20207;-55
2021/12/07 11:04:28;;;;;;;6.07;1.30;;;8.40;99.90;;;;;;5032507;28;20225;-55
2021/12/07 11:07:10;;;;;;;4.67;1.27;;;8.40;99.90;;;;;;5032234;28;20218;-55
2021/12/07 11:09:45;;;;;;;5.57;1.37;;;8.40;99.90;;;;;;5032012;28;20222;-55
2021/12/07 11:12:15;;;;;;;5.27;1.60;;;8.30;99.90;;;;;;5032090;28;20309;-56
2021/12/07 11:14:50;;;;;;;5.87;1.97;;;8.20;99.90;;;;;;5032062;28;20278;-55
2021/12/07 11:17:22;;;;;;;7.90;1.73;;;8.10;99.90;;;;;;5031566;28;20209;-54
2021/12/07 11:19:49;;;;;;;3.33;1.37;;;8.00;99.90;;;;;;5031820;28;20714;-55
2021/12/07 11:22:19;;;;;;;7.33;1.70;;;8.00;99.90;;;;;;5032090;28;20261;-55
2021/12/07 11:24:48;;;;;;;5.23;1.50;;;8.10;99.90;;;;;;5031889;28;20253;-55
2021/12/07 11:30:07;;;;;;;5.10;1.43;;;8.40;99.90;;;;;;5031867;28;20217;-56
2021/12/07 11:32:37;;;;;;;4.67;1.43;;;8.70;99.90;;;;;;5032302;28;20234;-58
2021/12/07 11:35:27;;;;;;;5.77;1.63;;;8.80;99.90;;;;;;5032002;28;20612;-55
2021/12/07 11:37:55;;;;;;;5.17;1.37;;;8.90;99.90;;;;;;5026112;28;20233;-55
2021/12/07 11:40:25;;;;;;;6.63;1.47;;;9.00;99.90;;;;;;5032549;28;20321;-58
2021/12/07 11:42:52;;;;;;;5.83;1.90;;;9.10;99.90;;;;;;5032315;28;20217;-58
2021/12/07 11:45:25;;;;;;;3.27;1.70;;;9.30;99.90;;;;;;5031948;28;20213;-58
2021/12/07 11:47:55;;;;;;;7.23;3.27;;;9.40;99.90;;;;;;5031684;28;20217;-58
2021/12/07 11:50:26;;;;;;;7.93;2.43;;;9.40;99.90;;;;;;5031756;28;20230;-58
2021/12/07 11:52:56;;;;;;;6.33;1.90;;;9.30;99.90;;;;;;5031672;28;20226;-57
2021/12/07 11:55:24;;;;;;;5.57;1.80;;;9.30;99.90;;;;;;5031725;28;20565;-57
2021/12/07 11:57:51;;;;;;;3.70;1.20;;;9.30;99.90;;;;;;5031535;28;20206;-57
2021/12/07 12:00:21;;;;;;;3.90;1.23;;;9.30;99.90;;;;;;5031482;28;20768;-58
2021/12/07 12:02:48;;;;;;;3.53;1.30;;;9.10;99.90;;;;;;5031468;28;20627;-58
2021/12/07 12:05:17;;;;;;;3.83;1.43;;;8.90;99.90;;;;;;5031716;28;20648;-58
2021/12/07 12:07:46;;;;;;;7.07;2.10;;;8.90;99.90;;;;;;5031338;28;20213;-58
2021/12/07 12:10:15;;;;;;;3.80;1.30;;;9.00;99.90;;;;;;5031422;28;20226;-58
2021/12/07 12:13:11;;;;;;;3.20;1.23;;;9.10;99.90;;;;;;5031449;28;20233;-59
2021/12/07 12:15:52;;;;;;;5.20;1.47;;;9.00;99.90;;;;;;5010532;28;20206;-58
2021/12/07 12:18:31;;;;;;;6.07;2.03;;;9.00;99.90;;;;;;5031704;28;20206;-59
2021/12/07 12:21:12;;;;;;;4.63;1.73;;;8.90;99.90;;;;;;5031275;28;20604;-59
2021/12/07 12:23:50;;;;;;;6.70;1.90;;;8.80;99.90;;;;;;5031309;28;20728;-58
2021/12/07 12:26:23;;;;;;;4.70;1.33;;;8.60;99.90;;;;;;5031202;28;20741;-58
2021/12/07 12:28:49;;;;;;;4.27;1.37;;;8.50;99.90;;;;;;5032415;28;20202;-58
2021/12/07 12:31:18;;;;;;;5.70;2.60;;;8.50;99.90;;;;;;5035047;28;20226;-58
2021/12/07 12:33:49;;;;;;;4.07;1.40;;;8.40;99.90;;;;;;5034582;28;20230;-58
2021/12/07 12:36:17;;;;;;;9.07;4.57;;;8.40;99.90;;;;;;5034302;28;20242;-58
2021/12/07 12:38:48;;;;;;;6.20;2.50;;;8.30;99.90;;;;;;5035000;28;20206;-59
2021/12/07 12:41:16;;;;;;;6.73;2.40;;;8.30;99.90;;;;;;5034677;28;20242;-58
2021/12/07 12:43:46;;;;;;;4.30;2.00;;;8.20;99.90;;;;;;5034945;28;20213;-58
2021/12/07 12:46:16;;;;;;;5.50;2.03;;;8.10;99.90;;;;;;5034972;28;20293;-59
2021/12/07 12:48:48;;;;;;;8.37;1.73;;;8.00;99.90;;;;;;5034717;28;20214;-58
2021/12/07 12:51:17;;;;;;;2.03;1.10;;;7.90;99.90;;;;;;5034912;28;20253;-58
2021/12/07 12:53:45;;;;;;;5.57;1.90;;;7.90;99.90;;;;;;5034586;28;20272;-58
2021/12/07 12:56:14;;;;;;;4.23;1.30;;;7.90;99.90;;;;;;5034737;28;20206;-59
2021/12/07 12:58:44;;;;;;;9.57;3.63;;;8.00;99.90;;;;;;5034877;28;20210;-58
2021/12/07 13:01:16;;;;;;;4.87;2.00;;;8.00;99.90;;;;;;5034418;28;20258;-58
2021/12/07 13:03:49;;;;;;;8.03;3.10;;;8.10;99.90;;;;;;5034700;28;20206;-57
2021/12/07 13:06:20;;;;;;;9.60;2.63;;;8.30;99.90;;;;;;5034512;28;20227;-59
2021/12/07 13:08:55;;;;;;;6.37;1.80;;;8.50;99.90;;;;;;5034699;28;20217;-59
2021/12/07 13:11:34;;;;;;;7.33;1.80;;;8.80;99.90;;;;;;5034420;28;20783;-58
2021/12/07 13:14:02;;;;;;;4.57;1.47;;;9.00;99.90;;;;;;5034816;28;20303;-59
2021/12/07 13:16:33;;;;;;;5.57;2.13;;;9.30;99.90;;;;;;5034135;28;20206;-58
2021/12/07 13:19:02;;;;;;;3.57;1.60;;;9.50;99.90;;;;;;5034430;28;20355;-59
2021/12/07 13:21:36;;;;;;;5.93;1.40;;;9.60;99.90;;;;;;5034061;28;20210;-58
2021/12/07 13:24:04;;;;;;;5.07;1.40;;;9.40;99.90;;;;;;5034239;28;20207;-60
2021/12/07 13:26:35;;;;;;;8.97;2.63;;;9.10;99.90;;;;;;5033904;28;20206;-58
2021/12/07 13:29:07;;;;;;;6.70;2.77;;;9.30;99.90;;;;;;5033965;28;20579;-58
2021/12/07 13:31:40;;;;;;;6.47;1.43;;;9.50;99.90;;;;;;5033759;28;20210;-58
2021/12/07 13:34:08;;;;;;;5.87;1.80;;;9.70;99.90;;;;;;5033954;28;20230;-57
2021/12/07 13:36:48;;;;;;;5.47;1.70;;;9.90;99.90;;;;;;5033642;28;20210;-64
2021/12/07 13:39:49;;;;;;;4.77;1.67;;;10.00;99.90;;;;;;5030521;28;20763;-61
2021/12/07 13:42:28;;;;;;;5.40;1.90;;;10.00;99.90;;;;;;4953171;29;20212;-60
2021/12/07 13:44:59;;;;;;;5.17;1.53;;;9.90;99.90;;;;;;4953003;29;20316;-58
2021/12/07 13:47:29;;;;;;;3.97;1.60;;;9.80;99.90;;;;;;4998125;28;20256;-58
2021/12/07 13:49:58;;;;;;;5.87;1.63;;;9.70;99.90;;;;;;5028780;28;20227;-58
2021/12/07 13:52:29;;;;;;;6.20;1.43;;;9.80;99.90;;;;;;5028267;28;20226;-59
2021/12/07 13:54:58;;;;;;;3.57;1.37;;;10.00;99.90;;;;;;5033639;28;20250;-60
2021/12/07 13:57:27;;;;;;;8.57;2.63;;;10.10;99.90;;;;;;5034316;28;20202;-60
2021/12/07 14:00:05;;;;;;;7.30;1.80;;;10.20;99.90;;;;;;5034661;28;20675;-60
2021/12/07 14:02:32;;;;;;;5.00;1.60;;;10.40;99.90;;;;;;5034896;28;20306;-60
2021/12/07 14:05:06;;;;;;;3.73;1.57;;;10.40;99.90;;;;;;5033318;28;20202;-58
2021/12/07 14:07:36;;;;;;;5.53;1.33;;;10.50;99.90;;;;;;5033432;28;20190;-59
2021/12/07 14:10:13;;;;;;;2.83;1.43;;;10.50;99.90;;;;;;5032920;28;20230;-60
2021/12/07 14:12:40;;;;;;;5.00;1.57;;;10.30;99.90;;;;;;5033167;28;20225;-59
2021/12/07 14:15:13;;;;;;;3.30;1.17;;;10.20;99.90;;;;;;5033556;28;20210;-61
2021/12/07 14:17:42;;;;;;;4.30;1.73;;;10.00;99.90;;;;;;5032834;28;20202;-59
2021/12/07 14:20:10;;;;;;;4.87;1.60;;;9.80;99.90;;;;;;5032616;28;20249;-59
2021/12/07 14:22:39;;;;;;;6.93;1.93;;;9.70;99.90;;;;;;5033137;28;20209;-61
2021/12/07 14:25:06;;;;;;;4.97;1.63;;;9.60;99.90;;;;;;5033113;28;20202;-58
2021/12/07 14:27:34;;;;;;;11.50;7.10;;;9.70;99.90;;;;;;5032534;28;20210;-59
2021/12/07 14:30:02;;;;;;;6.73;1.93;;;9.70;99.90;;;;;;5032943;28;20238;-59
2021/12/07 14:32:29;;;;;;;10.20;1.97;;;9.60;99.90;;;;;;5032836;28;20217;-58
2021/12/07 14:35:01;;;;;;;5.13;1.53;;;9.50;99.90;;;;;;5033064;28;20293;-58
2021/12/07 14:37:28;;;;;;;4.70;1.40;;;9.40;99.90;;;;;;5032854;28;20206;-59